createdAt,value
2018-03-11T00:00:54.899Z,0
2018-03-11T00:02:04.081Z,0
2018-03-11T00:03:13.803Z,0
2018-03-11T00:04:23.529Z,0
2018-03-11T00:05:33.517Z,0
2018-03-11T00:06:43.239Z,0
2018-03-11T00:07:53.007Z,0
2018-03-11T00:09:02.727Z,0
2018-03-11T00:10:12.447Z,0
2018-03-11T00:11:22.485Z,0
2018-03-11T00:12:32.483Z,0
2018-03-11T00:13:42.472Z,0
2018-03-11T00:14:52.460Z,0
2018-03-11T00:16:02.196Z,0
2018-03-11T00:17:12.191Z,0
2018-03-11T00:18:22.179Z,0
2018-03-11T00:19:32.178Z,0
2018-03-11T00:20:42.170Z,0
2018-03-11T00:21:52.150Z,0
2018-03-11T00:23:01.869Z,0
2018-03-11T00:24:11.325Z,0
2018-03-11T00:25:21.316Z,0
2018-03-11T00:26:31.302Z,0
2018-03-11T00:27:41.294Z,0
2018-03-11T00:28:51.295Z,0
2018-03-11T00:30:01.059Z,0
2018-03-11T00:31:10.520Z,0
2018-03-11T00:32:20.512Z,0
2018-03-11T00:33:30.495Z,0
2018-03-11T00:34:40.521Z,0
2018-03-11T00:35:50.298Z,0
2018-03-11T00:37:00.018Z,0
2018-03-11T00:38:10.005Z,0
2018-03-11T00:39:19.992Z,0
2018-03-11T00:40:29.720Z,0
2018-03-11T00:41:39.705Z,0
2018-03-11T00:42:49.688Z,0
2018-03-11T00:43:59.417Z,0
2018-03-11T00:45:09.143Z,0
2018-03-11T00:46:19.140Z,0
2018-03-11T00:47:29.131Z,0
2018-03-11T00:48:39.120Z,0
2018-03-11T00:49:49.111Z,0
2018-03-11T00:50:58.562Z,0
2018-03-11T00:52:08.277Z,0
2018-03-11T00:53:17.997Z,0
2018-03-11T00:54:27.983Z,0
2018-03-11T00:55:37.699Z,0
2018-03-11T00:56:47.418Z,0
2018-03-11T00:57:57.414Z,0
2018-03-11T00:59:07.405Z,0
2018-03-11T01:00:17.393Z,0
2018-03-11T01:01:27.378Z,0
2018-03-11T01:02:37.368Z,0
2018-03-11T01:03:47.365Z,0
2018-03-11T01:04:57.348Z,0
2018-03-11T01:06:06.800Z,0
2018-03-11T01:07:16.521Z,0
2018-03-11T01:08:26.515Z,0
2018-03-11T01:09:36.233Z,0
2018-03-11T01:10:46.223Z,0
2018-03-11T01:11:56.214Z,0
2018-03-11T01:13:05.932Z,0
2018-03-11T01:14:15.654Z,0
2018-03-11T01:15:25.650Z,0
2018-03-11T01:16:34.852Z,0
2018-03-11T01:17:44.570Z,0
2018-03-11T01:18:54.561Z,0
2018-03-11T01:20:04.552Z,0
2018-03-11T01:21:14.287Z,0
2018-03-11T01:22:24.278Z,0
2018-03-11T01:23:33.997Z,0
2018-03-11T01:24:43.717Z,0
2018-03-11T01:25:53.712Z,0
2018-03-11T01:27:03.431Z,0
2018-03-11T01:28:13.151Z,0
2018-03-11T01:29:23.140Z,0
2018-03-11T01:30:32.857Z,0
2018-03-11T01:31:42.583Z,0
2018-03-11T01:32:52.569Z,0
2018-03-11T01:34:02.557Z,0
2018-03-11T01:35:12.284Z,0
2018-03-11T01:36:22.268Z,0
2018-03-11T01:37:31.992Z,0
2018-03-11T01:38:41.988Z,0
2018-03-11T01:39:51.703Z,0
2018-03-11T01:41:01.421Z,0
2018-03-11T01:42:10.875Z,0
2018-03-11T01:43:20.649Z,0
2018-03-11T01:44:30.102Z,0
2018-03-11T01:45:40.087Z,0
2018-03-11T01:46:50.082Z,0
2018-03-11T01:47:59.807Z,0
2018-03-11T01:49:09.264Z,0
2018-03-11T01:50:19.253Z,0
2018-03-11T01:51:29.237Z,0
2018-03-11T01:52:38.959Z,0
2018-03-11T01:53:48.673Z,0
2018-03-11T01:54:58.656Z,0
2018-03-11T01:56:08.114Z,0
2018-03-11T01:57:18.107Z,0
2018-03-11T01:58:28.267Z,0
2018-03-11T01:59:37.991Z,0
2018-03-11T02:00:47.984Z,0
2018-03-11T02:01:57.980Z,0
2018-03-11T02:03:07.434Z,0
2018-03-11T02:04:17.774Z,0
2018-03-11T02:05:26.962Z,0
2018-03-11T02:06:36.690Z,0
2018-03-11T02:07:46.692Z,0
2018-03-11T02:08:56.694Z,0
2018-03-11T02:10:06.675Z,0
2018-03-11T02:11:16.129Z,0
2018-03-11T02:12:26.122Z,0
2018-03-11T02:13:36.109Z,0
2018-03-11T02:14:45.295Z,0
2018-03-11T02:15:55.012Z,0
2018-03-11T02:17:04.735Z,0
2018-03-11T02:18:13.983Z,0
2018-03-11T02:19:23.968Z,0
2018-03-11T02:20:33.960Z,0
2018-03-11T02:21:43.686Z,0
2018-03-11T02:22:53.676Z,0
2018-03-11T02:24:03.666Z,0
2018-03-11T02:25:13.653Z,0
2018-03-11T02:26:23.646Z,0
2018-03-11T02:27:33.378Z,0
2018-03-11T02:28:43.418Z,0
2018-03-11T02:29:53.413Z,0
2018-03-11T02:31:03.405Z,0
2018-03-11T02:32:12.325Z,0
2018-03-11T02:33:22.337Z,0
2018-03-11T02:34:32.064Z,0
2018-03-11T02:35:41.791Z,0
2018-03-11T02:36:51.782Z,0
2018-03-11T02:38:01.813Z,0
2018-03-11T02:39:11.541Z,0
2018-03-11T02:40:21.287Z,0
2018-03-11T02:41:31.279Z,0
2018-03-11T02:42:41.021Z,0
2018-03-11T02:43:51.006Z,0
2018-03-11T02:45:01.059Z,0
2018-03-11T02:46:10.797Z,0
2018-03-11T02:47:20.796Z,0
2018-03-11T02:48:30.799Z,0
2018-03-11T02:49:40.257Z,0
2018-03-11T02:50:50.031Z,0
2018-03-11T02:52:00.038Z,0
2018-03-11T02:53:09.228Z,0
2018-03-11T02:54:19.218Z,0
2018-03-11T02:55:29.208Z,0
2018-03-11T02:56:39.207Z,0
2018-03-11T02:57:49.196Z,0
2018-03-11T02:58:58.915Z,0
2018-03-11T03:00:08.655Z,0
2018-03-11T03:01:18.640Z,0
2018-03-11T03:02:31.985Z,0
2018-03-11T03:03:41.704Z,0
2018-03-11T03:04:51.706Z,0
2018-03-11T03:06:01.429Z,0
2018-03-11T03:07:11.159Z,0
2018-03-11T03:08:21.152Z,0
2018-03-11T03:09:31.134Z,0
2018-03-11T03:10:40.854Z,0
2018-03-11T03:11:50.588Z,0
2018-03-11T03:13:00.590Z,0
2018-03-11T03:14:09.782Z,0
2018-03-11T03:15:19.818Z,0
2018-03-11T03:16:29.803Z,0
2018-03-11T03:17:39.784Z,0
2018-03-11T03:18:49.515Z,0
2018-03-11T03:19:59.600Z,0
2018-03-11T03:21:09.601Z,0
2018-03-11T03:22:19.616Z,0
2018-03-11T03:23:29.075Z,0
2018-03-11T03:24:38.797Z,0
2018-03-11T03:25:48.886Z,0
2018-03-11T03:26:58.604Z,0
2018-03-11T03:28:08.597Z,0
2018-03-11T03:29:18.588Z,0
2018-03-11T03:30:28.321Z,0
2018-03-11T03:31:38.117Z,0
2018-03-11T03:32:48.115Z,0
2018-03-11T03:33:57.836Z,0
2018-03-11T03:35:07.827Z,0
2018-03-11T03:36:17.818Z,0
2018-03-11T03:37:28.155Z,0
2018-03-11T03:38:37.712Z,0
2018-03-11T03:39:47.440Z,0
2018-03-11T03:40:57.165Z,0
2018-03-11T03:42:06.620Z,0
2018-03-11T03:43:15.819Z,0
2018-03-11T03:44:25.812Z,0
2018-03-11T03:45:35.273Z,0
2018-03-11T03:46:45.001Z,0
2018-03-11T03:47:54.985Z,0
2018-03-11T03:49:04.985Z,0
2018-03-11T03:50:14.710Z,0
2018-03-11T03:51:24.437Z,0
2018-03-11T03:52:33.903Z,0
2018-03-11T03:53:43.938Z,0
2018-03-11T03:54:53.393Z,0
2018-03-11T03:56:03.384Z,0
2018-03-11T03:57:13.116Z,0
2018-03-11T03:58:22.570Z,0
2018-03-11T03:59:32.289Z,0
2018-03-11T04:03:29.309Z,0
2018-03-11T04:04:39.301Z,0
2018-03-11T04:05:49.292Z,0
2018-03-11T04:06:59.288Z,0
2018-03-11T04:08:08.744Z,0
2018-03-11T04:09:18.461Z,0
2018-03-11T04:10:28.452Z,0
2018-03-11T04:11:38.173Z,0
2018-03-11T04:12:48.168Z,0
2018-03-11T04:13:57.622Z,0
2018-03-11T04:15:09.354Z,0
2018-03-11T04:16:19.339Z,0
2018-03-11T04:17:28.526Z,0
2018-03-11T04:18:38.247Z,0
2018-03-11T04:19:48.244Z,0
2018-03-11T04:20:57.487Z,0
2018-03-11T04:22:06.935Z,0
2018-03-11T04:23:16.940Z,0
2018-03-11T04:24:26.403Z,0
2018-03-11T04:25:35.859Z,0
2018-03-11T04:26:45.586Z,0
2018-03-11T04:27:55.362Z,0
2018-03-11T04:29:05.358Z,0
2018-03-11T04:30:15.091Z,0
2018-03-11T04:31:24.546Z,0
2018-03-11T04:32:34.636Z,0
2018-03-11T04:33:44.358Z,0
2018-03-11T04:34:54.348Z,0
2018-03-11T04:36:04.338Z,0
2018-03-11T04:37:14.055Z,0
2018-03-11T04:38:24.133Z,0
2018-03-11T04:39:33.854Z,0
2018-03-11T04:40:43.847Z,0
2018-03-11T04:41:53.847Z,0
2018-03-11T04:43:03.586Z,0
2018-03-11T04:44:13.416Z,0
2018-03-11T04:45:23.406Z,0
2018-03-11T04:46:32.861Z,0
2018-03-11T04:47:42.051Z,0
2018-03-11T04:48:51.513Z,0
2018-03-11T04:50:01.531Z,0
2018-03-11T04:51:10.994Z,0
2018-03-11T04:52:20.719Z,0
2018-03-11T04:53:30.712Z,0
2018-03-11T04:54:40.168Z,0
2018-03-11T04:55:50.168Z,0
2018-03-11T04:57:00.156Z,0
2018-03-11T04:58:09.614Z,0
2018-03-11T04:59:19.596Z,0
2018-03-11T05:00:29.322Z,0
2018-03-11T05:01:39.311Z,0
2018-03-11T05:02:49.034Z,0
2018-03-11T05:03:59.027Z,0
2018-03-11T05:05:09.049Z,0
2018-03-11T05:06:19.042Z,0
2018-03-11T05:07:28.493Z,4
2018-03-11T05:08:38.480Z,4
2018-03-11T05:09:47.672Z,0
2018-03-11T05:10:57.396Z,0
2018-03-11T05:12:06.854Z,4
2018-03-11T05:13:16.898Z,4
2018-03-11T05:14:26.351Z,4
2018-03-11T05:15:36.067Z,4
2018-03-11T05:16:45.790Z,4
2018-03-11T05:17:55.781Z,8
2018-03-11T05:19:05.780Z,8
2018-03-11T05:20:15.772Z,4
2018-03-11T05:21:25.766Z,12
2018-03-11T05:22:35.491Z,12
2018-03-11T05:23:45.214Z,12
2018-03-11T05:24:55.197Z,16
2018-03-11T05:26:04.924Z,16
2018-03-11T05:27:14.650Z,16
2018-03-11T05:28:24.642Z,24
2018-03-11T05:29:34.669Z,24
2018-03-11T05:30:44.120Z,28
2018-03-11T05:31:53.851Z,36
2018-03-11T05:33:03.842Z,40
2018-03-11T05:34:13.837Z,48
2018-03-11T05:35:23.831Z,52
2018-03-11T05:36:33.819Z,60
2018-03-11T05:37:43.543Z,64
2018-03-11T05:38:53.537Z,76
2018-03-11T05:40:03.266Z,80
2018-03-11T05:41:13.005Z,92
2018-03-11T05:42:23.008Z,100
2018-03-11T05:43:32.999Z,112
2018-03-11T05:44:42.993Z,120
2018-03-11T05:45:52.981Z,132
2018-03-11T05:47:02.980Z,148
2018-03-11T05:48:12.175Z,168
2018-03-11T05:49:22.164Z,184
2018-03-11T05:50:31.888Z,204
2018-03-11T05:51:41.886Z,224
2018-03-11T05:52:51.882Z,248
2018-03-11T05:54:01.888Z,268
2018-03-11T05:55:11.649Z,284
2018-03-11T05:56:21.370Z,308
2018-03-11T05:57:31.101Z,332
2018-03-11T05:58:41.092Z,356
2018-03-11T05:59:50.544Z,372
2018-03-11T06:01:00.286Z,392
2018-03-11T06:02:10.012Z,412
2018-03-11T06:03:20.001Z,432
2018-03-11T06:04:29.753Z,456
2018-03-11T06:05:39.472Z,480
2018-03-11T06:06:49.196Z,512
2018-03-11T06:07:58.648Z,548
2018-03-11T06:09:08.638Z,592
2018-03-11T06:10:18.624Z,640
2018-03-11T06:11:28.608Z,684
2018-03-11T06:12:38.598Z,720
2018-03-11T06:13:48.585Z,764
2018-03-11T06:14:58.577Z,812
2018-03-11T06:16:08.569Z,860
2018-03-11T06:17:18.388Z,904
2018-03-11T06:18:27.846Z,936
2018-03-11T06:19:37.300Z,972
2018-03-11T06:20:47.293Z,1016
2018-03-11T06:21:56.748Z,1072
2018-03-11T06:23:06.206Z,1124
2018-03-11T06:24:15.929Z,1172
2018-03-11T06:25:25.923Z,1212
2018-03-11T06:26:36.083Z,1256
2018-03-11T06:27:45.550Z,1300
2018-03-11T06:28:55.271Z,1356
2018-03-11T06:30:04.994Z,1436
2018-03-11T06:31:14.443Z,1516
2018-03-11T06:32:24.455Z,1588
2018-03-11T06:33:34.453Z,1672
2018-03-11T06:34:44.176Z,1756
2018-03-11T06:35:54.159Z,1852
2018-03-11T06:37:04.149Z,1964
2018-03-11T06:38:14.151Z,2076
2018-03-11T06:39:24.145Z,2192
2018-03-11T06:40:33.967Z,2336
2018-03-11T06:41:43.964Z,2480
2018-03-11T06:42:53.949Z,2628
2018-03-11T06:44:03.670Z,2764
2018-03-11T06:45:13.124Z,2888
2018-03-11T06:46:22.580Z,2952
2018-03-11T06:47:32.570Z,3012
2018-03-11T06:48:42.558Z,3052
2018-03-11T06:49:52.548Z,3100
2018-03-11T06:51:02.544Z,3152
2018-03-11T06:52:12.619Z,3200
2018-03-11T06:53:22.647Z,3240
2018-03-11T06:54:32.380Z,3264
2018-03-11T06:55:42.097Z,3332
2018-03-11T06:56:52.084Z,3432
2018-03-11T06:58:01.540Z,3536
2018-03-11T06:59:11.269Z,3640
2018-03-11T07:00:20.731Z,3712
2018-03-11T07:01:30.457Z,3760
2018-03-11T07:02:40.445Z,3788
2018-03-11T07:03:49.965Z,3812
2018-03-11T07:04:59.669Z,3840
2018-03-11T07:06:09.400Z,3892
2018-03-11T07:07:18.857Z,3968
2018-03-11T07:08:28.584Z,4032
2018-03-11T07:09:38.573Z,4104
2018-03-11T07:10:48.302Z,4152
2018-03-11T07:11:57.490Z,4200
2018-03-11T07:13:07.495Z,4248
2018-03-11T07:14:17.480Z,4308
2018-03-11T07:15:27.473Z,4344
2018-03-11T07:16:37.203Z,4428
2018-03-11T07:17:47.196Z,4480
2018-03-11T07:18:57.219Z,4524
2018-03-11T07:20:07.217Z,4552
2018-03-11T07:21:17.215Z,4576
2018-03-11T07:22:27.211Z,4696
2018-03-11T07:23:37.207Z,4792
2018-03-11T07:24:46.931Z,4920
2018-03-11T07:25:56.385Z,5088
2018-03-11T07:27:05.840Z,5216
2018-03-11T07:28:15.299Z,5488
2018-03-11T07:29:25.288Z,5764
2018-03-11T07:30:35.010Z,6068
2018-03-11T07:31:44.997Z,6404
2018-03-11T07:32:54.995Z,6724
2018-03-11T07:34:04.986Z,7028
2018-03-11T07:35:14.453Z,7232
2018-03-11T07:36:24.178Z,7316
2018-03-11T07:37:34.180Z,7364
2018-03-11T07:38:44.168Z,7140
2018-03-11T07:39:54.160Z,6752
2018-03-11T07:41:04.195Z,6544
2018-03-11T07:42:13.927Z,6360
2018-03-11T07:43:23.919Z,6216
2018-03-11T07:44:33.380Z,6100
2018-03-11T07:45:43.385Z,6016
2018-03-11T07:46:53.106Z,5964
2018-03-11T07:48:03.098Z,5928
2018-03-11T07:49:12.639Z,5880
2018-03-11T07:50:22.362Z,5844
2018-03-11T07:51:32.091Z,5868
2018-03-11T07:52:42.078Z,6032
2018-03-11T07:53:52.063Z,6272
2018-03-11T07:55:02.052Z,6624
2018-03-11T07:56:12.045Z,7196
2018-03-11T07:57:22.042Z,7660
2018-03-11T07:58:32.030Z,8092
2018-03-11T07:59:41.766Z,8276
2018-03-11T08:00:51.805Z,8396
2018-03-11T08:02:01.792Z,8708
2018-03-11T08:03:11.248Z,9216
2018-03-11T08:04:20.704Z,9812
2018-03-11T08:05:29.895Z,9996
2018-03-11T08:06:39.622Z,10144
2018-03-11T08:07:49.079Z,10180
2018-03-11T08:08:58.531Z,10496
2018-03-11T08:10:08.289Z,10860
2018-03-11T08:11:18.015Z,11100
2018-03-11T08:12:27.205Z,10800
2018-03-11T08:13:36.930Z,10972
2018-03-11T08:14:46.931Z,11724
2018-03-11T08:15:56.958Z,12140
2018-03-11T08:17:06.985Z,11608
2018-03-11T08:18:16.990Z,10460
2018-03-11T08:19:26.981Z,9584
2018-03-11T08:20:36.977Z,9576
2018-03-11T08:21:46.973Z,10128
2018-03-11T08:22:55.893Z,10272
2018-03-11T08:24:05.627Z,10544
2018-03-11T08:25:15.404Z,10408
2018-03-11T08:26:25.402Z,10600
2018-03-11T08:27:35.407Z,11684
2018-03-11T08:28:44.862Z,12752
2018-03-11T08:29:54.590Z,13460
2018-03-11T08:31:04.588Z,13724
2018-03-11T08:32:14.587Z,13572
2018-03-11T08:33:24.318Z,14376
2018-03-11T08:34:34.319Z,14536
2018-03-11T08:35:44.308Z,14692
2018-03-11T08:36:54.038Z,14896
2018-03-11T08:38:04.036Z,15088
2018-03-11T08:39:13.762Z,15112
2018-03-11T08:40:23.491Z,14940
2018-03-11T08:41:33.218Z,14368
2018-03-11T08:42:43.215Z,13420
2018-03-11T08:43:53.224Z,13452
2018-03-11T08:45:02.468Z,14052
2018-03-11T08:46:12.196Z,14132
2018-03-11T08:47:22.188Z,14040
2018-03-11T08:48:32.258Z,14400
2018-03-11T08:49:42.266Z,14536
2018-03-11T08:50:52.259Z,14408
2018-03-11T08:52:01.977Z,14036
2018-03-11T08:53:11.435Z,13508
2018-03-11T08:54:21.175Z,13612
2018-03-11T08:55:30.642Z,13536
2018-03-11T08:56:40.688Z,13016
2018-03-11T08:57:50.147Z,12816
2018-03-11T08:59:00.141Z,13120
2018-03-11T09:00:09.958Z,13268
2018-03-11T09:01:19.988Z,13144
2018-03-11T09:02:29.983Z,12656
2018-03-11T09:03:39.978Z,12184
2018-03-11T09:04:49.977Z,11744
2018-03-11T09:05:59.974Z,11424
2018-03-11T09:07:09.973Z,11444
2018-03-11T09:08:19.973Z,11672
2018-03-11T09:09:29.695Z,11860
2018-03-11T09:10:39.580Z,12056
2018-03-11T09:11:49.683Z,12348
2018-03-11T09:12:59.677Z,12548
2018-03-11T09:14:09.685Z,12660
2018-03-11T09:15:19.406Z,12672
2018-03-11T09:16:29.137Z,12684
2018-03-11T09:17:38.432Z,12812
2018-03-11T09:18:48.218Z,12920
2018-03-11T09:19:57.681Z,12964
2018-03-11T09:21:07.186Z,12952
2018-03-11T09:22:17.194Z,12960
2018-03-11T09:23:26.921Z,12988
2018-03-11T09:24:36.918Z,13072
2018-03-11T09:25:46.914Z,13204
2018-03-11T09:26:56.915Z,13472
2018-03-11T09:28:06.644Z,13772
2018-03-11T09:29:16.413Z,14292
2018-03-11T09:30:26.422Z,14724
2018-03-11T09:31:36.423Z,15244
2018-03-11T09:32:46.160Z,15704
2018-03-11T09:33:56.153Z,16072
2018-03-11T09:35:06.155Z,16368
2018-03-11T09:36:16.157Z,16592
2018-03-11T09:37:26.154Z,16992
2018-03-11T09:38:36.149Z,17408
2018-03-11T09:39:46.146Z,17952
2018-03-11T09:40:55.611Z,18432
2018-03-11T09:42:05.071Z,18528
2018-03-11T09:43:14.804Z,18624
2018-03-11T09:44:24.541Z,18880
2018-03-11T09:45:33.204Z,19200
2018-03-11T09:46:42.934Z,19040
2018-03-11T09:47:52.935Z,18880
2018-03-11T09:49:02.936Z,18688
2018-03-11T09:50:12.928Z,18592
2018-03-11T09:51:22.662Z,18272
2018-03-11T09:52:32.437Z,18048
2018-03-11T09:53:42.181Z,17824
2018-03-11T09:54:51.914Z,17600
2018-03-11T09:56:01.932Z,17664
2018-03-11T09:57:11.395Z,17984
2018-03-11T09:58:21.127Z,18112
2018-03-11T09:59:30.856Z,18368
2018-03-11T10:00:40.587Z,18208
2018-03-11T10:01:50.589Z,18176
2018-03-11T10:03:00.586Z,18208
2018-03-11T10:04:10.480Z,18496
2018-03-11T10:05:19.943Z,18656
2018-03-11T10:06:29.425Z,19008
2018-03-11T10:07:39.481Z,19296
2018-03-11T10:08:48.685Z,19488
2018-03-11T10:09:58.416Z,19040
2018-03-11T10:11:08.422Z,18400
2018-03-11T10:12:18.154Z,17568
2018-03-11T10:13:27.921Z,17056
2018-03-11T10:14:37.717Z,16604
2018-03-11T10:15:47.455Z,16320
2018-03-11T10:16:57.451Z,15952
2018-03-11T10:18:07.182Z,15640
2018-03-11T10:19:17.175Z,15396
2018-03-11T10:20:26.918Z,15512
2018-03-11T10:21:36.916Z,15696
2018-03-11T10:22:46.651Z,15672
2018-03-11T10:23:56.381Z,15512
2018-03-11T10:25:06.114Z,15392
2018-03-11T10:26:15.579Z,15280
2018-03-11T10:27:25.590Z,15176
2018-03-11T10:28:35.325Z,15212
2018-03-11T10:29:45.334Z,15520
2018-03-11T10:30:55.076Z,15644
2018-03-11T10:32:05.083Z,15516
2018-03-11T10:33:15.092Z,15276
2018-03-11T10:34:24.824Z,15044
2018-03-11T10:35:34.290Z,14276
2018-03-11T10:36:44.027Z,13740
2018-03-11T10:37:53.861Z,13156
2018-03-11T10:39:03.873Z,12516
2018-03-11T10:40:13.340Z,11876
2018-03-11T10:41:23.338Z,11556
2018-03-11T10:42:33.068Z,11340
2018-03-11T10:43:43.065Z,11116
2018-03-11T10:44:52.791Z,11076
2018-03-11T10:46:01.984Z,10908
2018-03-11T10:47:11.721Z,10732
2018-03-11T10:48:21.725Z,10520
2018-03-11T10:49:31.455Z,10380
2018-03-11T10:50:41.213Z,10268
2018-03-11T10:51:51.285Z,10228
2018-03-11T10:53:01.282Z,10268
2018-03-11T10:54:10.750Z,10416
2018-03-11T10:55:20.749Z,10552
2018-03-11T10:56:30.742Z,10784
2018-03-11T10:57:40.209Z,11068
2018-03-11T10:58:49.935Z,11352
2018-03-11T10:59:59.930Z,11688
2018-03-11T11:01:09.394Z,11992
2018-03-11T11:02:19.266Z,12152
2018-03-11T11:03:29.262Z,12368
2018-03-11T11:04:39.258Z,12636
2018-03-11T11:05:49.255Z,13012
2018-03-11T11:06:59.250Z,13408
2018-03-11T11:08:09.248Z,13816
2018-03-11T11:09:18.971Z,14008
2018-03-11T11:10:28.426Z,14024
2018-03-11T11:11:38.152Z,14192
2018-03-11T11:12:47.622Z,14408
2018-03-11T11:13:57.353Z,14648
2018-03-11T11:15:06.817Z,15188
2018-03-11T11:16:16.818Z,15864
2018-03-11T11:17:26.807Z,16304
2018-03-11T11:18:36.537Z,16652
2018-03-11T11:19:46.533Z,16984
2018-03-11T11:20:56.532Z,17184
2018-03-11T11:22:06.532Z,17248
2018-03-11T11:23:16.527Z,17472
2018-03-11T11:24:26.524Z,17728
2018-03-11T11:25:36.668Z,17856
2018-03-11T11:26:46.429Z,18016
2018-03-11T11:27:56.421Z,18112
2018-03-11T11:29:06.424Z,18368
2018-03-11T11:30:16.424Z,18656
2018-03-11T11:31:25.886Z,18880
2018-03-11T11:32:35.624Z,18976
2018-03-11T11:33:45.624Z,19360
2018-03-11T11:34:55.618Z,20000
2018-03-11T11:36:05.660Z,20672
2018-03-11T11:37:15.389Z,21184
2018-03-11T11:38:25.392Z,21152
2018-03-11T11:39:35.387Z,20832
2018-03-11T11:40:44.851Z,20192
2018-03-11T11:41:54.586Z,19488
2018-03-11T11:43:04.676Z,19072
2018-03-11T11:44:14.709Z,18528
2018-03-11T11:45:24.175Z,17760
2018-03-11T11:46:34.180Z,17120
2018-03-11T11:47:43.646Z,16284
2018-03-11T11:48:53.956Z,15668
2018-03-11T11:50:03.988Z,15184
2018-03-11T11:51:14.010Z,14720
2018-03-11T11:52:23.744Z,14344
2018-03-11T11:53:33.481Z,14132
2018-03-11T11:54:43.528Z,14032
2018-03-11T11:55:52.992Z,13996
2018-03-11T11:57:02.987Z,14004
2018-03-11T11:58:12.592Z,13968
2018-03-11T11:59:21.523Z,13796
2018-03-11T12:00:31.354Z,13584
2018-03-11T12:01:40.552Z,13472
2018-03-11T12:02:50.013Z,13544
2018-03-11T12:04:00.019Z,13680
2018-03-11T12:05:09.749Z,13816
2018-03-11T12:06:19.800Z,13928
2018-03-11T12:07:29.527Z,13820
2018-03-11T12:08:39.529Z,13460
2018-03-11T12:09:49.531Z,13100
2018-03-11T12:10:59.260Z,12784
2018-03-11T12:12:09.083Z,12360
2018-03-11T12:13:19.105Z,11848
2018-03-11T12:14:28.834Z,11480
2018-03-11T12:15:38.567Z,11276
2018-03-11T12:16:48.300Z,11296
2018-03-11T12:17:57.772Z,11524
2018-03-11T12:19:07.768Z,11868
2018-03-11T12:20:17.759Z,12356
2018-03-11T12:21:27.231Z,13040
2018-03-11T12:22:37.310Z,13752
2018-03-11T12:23:47.042Z,14052
2018-03-11T12:24:56.778Z,13944
2018-03-11T12:26:05.969Z,13620
2018-03-11T12:27:15.699Z,13544
2018-03-11T12:28:25.691Z,13836
2018-03-11T12:29:35.418Z,14364
2018-03-11T12:30:45.424Z,14888
2018-03-11T12:31:54.887Z,15300
2018-03-11T12:33:04.626Z,15468
2018-03-11T12:34:14.380Z,15260
2018-03-11T12:35:24.374Z,14672
2018-03-11T12:36:34.371Z,13884
2018-03-11T12:37:43.567Z,13132
2018-03-11T12:38:53.303Z,12488
2018-03-11T12:40:03.303Z,11980
2018-03-11T12:41:13.037Z,11648
2018-03-11T12:42:23.106Z,11476
2018-03-11T12:43:32.835Z,11384
2018-03-11T12:44:42.576Z,11392
2018-03-11T12:45:52.585Z,11520
2018-03-11T12:47:02.319Z,11692
2018-03-11T12:48:12.350Z,11960
2018-03-11T12:49:21.816Z,12340
2018-03-11T12:50:31.541Z,12684
2018-03-11T12:51:41.002Z,12880
2018-03-11T12:52:51.002Z,12872
2018-03-11T12:54:00.727Z,12692
2018-03-11T12:55:10.192Z,12400
2018-03-11T12:56:19.654Z,12076
2018-03-11T12:57:29.653Z,11772
2018-03-11T12:58:39.377Z,11552
2018-03-11T12:59:49.370Z,11380
2018-03-11T13:00:59.100Z,11228
2018-03-11T13:02:08.560Z,11100
2018-03-11T13:03:18.290Z,11012
2018-03-11T13:04:27.753Z,11016
2018-03-11T13:05:37.225Z,11088
2018-03-11T13:06:46.960Z,11184
2018-03-11T13:07:56.694Z,11316
2018-03-11T13:09:06.425Z,11508
2018-03-11T13:10:16.161Z,11696
2018-03-11T13:11:25.901Z,11792
2018-03-11T13:12:35.635Z,11772
2018-03-11T13:13:45.374Z,11696
2018-03-11T13:14:55.372Z,11592
2018-03-11T13:16:05.366Z,11552
2018-03-11T13:17:15.099Z,11604
2018-03-11T13:18:25.096Z,11668
2018-03-11T13:19:35.297Z,11740
2018-03-11T13:20:45.028Z,11808
2018-03-11T13:21:54.760Z,11848
2018-03-11T13:23:04.489Z,11924
2018-03-11T13:24:14.430Z,12144
2018-03-11T13:25:24.167Z,12388
2018-03-11T13:26:33.630Z,12480
2018-03-11T13:27:43.623Z,12404
2018-03-11T13:28:53.618Z,12264
2018-03-11T13:30:03.629Z,12088
2018-03-11T13:31:13.457Z,11936
2018-03-11T13:32:23.184Z,11844
2018-03-11T13:33:32.913Z,11848
2018-03-11T13:34:42.650Z,11900
2018-03-11T13:35:52.377Z,11936
2018-03-11T13:37:02.374Z,11960
2018-03-11T13:38:12.171Z,11976
2018-03-11T13:39:21.906Z,12012
2018-03-11T13:40:31.900Z,12064
2018-03-11T13:41:41.637Z,12044
2018-03-11T13:42:51.635Z,12020
2018-03-11T13:44:01.632Z,12092
2018-03-11T13:45:11.365Z,12164
2018-03-11T13:46:21.358Z,12192
2018-03-11T13:47:30.822Z,12164
2018-03-11T13:48:40.822Z,12080
2018-03-11T13:49:50.288Z,11912
2018-03-11T13:51:00.021Z,11648
2018-03-11T13:52:09.754Z,11340
2018-03-11T13:53:19.489Z,11128
2018-03-11T13:54:28.946Z,11188
2018-03-11T13:55:38.741Z,11616
2018-03-11T13:56:48.487Z,12304
2018-03-11T13:57:58.477Z,12996
2018-03-11T13:59:08.483Z,13528
2018-03-11T14:00:18.496Z,13764
2018-03-11T14:01:28.489Z,13692
2018-03-11T14:02:38.233Z,13384
2018-03-11T14:03:47.974Z,12900
2018-03-11T14:04:57.714Z,12352
2018-03-11T14:06:07.475Z,11904
2018-03-11T14:07:17.546Z,11648
2018-03-11T14:08:27.276Z,11560
2018-03-11T14:09:36.737Z,11536
2018-03-11T14:10:46.740Z,11524
2018-03-11T14:11:56.469Z,11392
2018-03-11T14:13:06.203Z,11216
2018-03-11T14:14:15.979Z,11252
2018-03-11T14:15:25.729Z,11744
2018-03-11T14:16:35.460Z,12628
2018-03-11T14:17:45.506Z,13544
2018-03-11T14:18:55.601Z,14352
2018-03-11T14:20:05.435Z,14756
2018-03-11T14:21:15.431Z,14224
2018-03-11T14:22:25.464Z,12656
2018-03-11T14:23:35.199Z,10676
2018-03-11T14:24:44.926Z,9136
2018-03-11T14:25:54.668Z,8128
2018-03-11T14:27:04.672Z,7556
2018-03-11T14:28:13.876Z,7168
2018-03-11T14:29:23.606Z,6912
2018-03-11T14:30:33.599Z,6736
2018-03-11T14:31:42.795Z,6584
2018-03-11T14:32:52.256Z,6460
2018-03-11T14:34:02.252Z,6380
2018-03-11T14:35:11.992Z,6376
2018-03-11T14:36:21.713Z,6468
2018-03-11T14:37:31.441Z,6676
2018-03-11T14:38:41.175Z,7116
2018-03-11T14:39:50.910Z,7652
2018-03-11T14:41:00.369Z,7832
2018-03-11T14:42:09.575Z,8072
2018-03-11T14:43:19.355Z,8244
2018-03-11T14:44:29.365Z,8604
2018-03-11T14:45:38.869Z,8928
2018-03-11T14:46:48.602Z,9208
2018-03-11T14:47:58.600Z,9092
2018-03-11T14:49:08.597Z,8876
2018-03-11T14:50:18.594Z,8596
2018-03-11T14:51:28.622Z,8200
2018-03-11T14:52:38.094Z,7960
2018-03-11T14:53:47.829Z,8024
2018-03-11T14:54:57.568Z,8032
2018-03-11T14:56:07.029Z,7840
2018-03-11T14:57:16.759Z,7880
2018-03-11T14:58:26.504Z,8004
2018-03-11T14:59:36.515Z,7928
2018-03-11T15:00:45.986Z,7624
2018-03-11T15:01:55.716Z,7340
2018-03-11T15:03:05.448Z,7244
2018-03-11T15:04:15.184Z,7216
2018-03-11T15:05:25.185Z,7092
2018-03-11T15:06:35.281Z,6792
2018-03-11T15:07:44.750Z,6360
2018-03-11T15:08:53.955Z,5876
2018-03-11T15:10:03.957Z,5416
2018-03-11T15:11:13.841Z,5036
2018-03-11T15:12:23.947Z,4732
2018-03-11T15:13:33.672Z,4540
2018-03-11T15:14:43.672Z,4440
2018-03-11T15:15:53.664Z,4456
2018-03-11T15:17:03.395Z,4596
2018-03-11T15:18:13.398Z,4808
2018-03-11T15:19:23.398Z,5072
2018-03-11T15:20:33.125Z,5320
2018-03-11T15:21:43.127Z,5468
2018-03-11T15:22:52.856Z,5432
2018-03-11T15:24:02.319Z,5324
2018-03-11T15:25:11.248Z,5232
2018-03-11T15:26:21.087Z,5160
2018-03-11T15:27:31.079Z,5064
2018-03-11T15:28:41.078Z,5052
2018-03-11T15:29:50.813Z,5196
2018-03-11T15:31:00.275Z,5460
2018-03-11T15:32:10.005Z,5720
2018-03-11T15:33:19.205Z,5980
2018-03-11T15:34:28.713Z,6164
2018-03-11T15:35:38.792Z,6248
2018-03-11T15:36:48.790Z,6272
2018-03-11T15:37:58.512Z,6172
2018-03-11T15:39:08.570Z,5944
2018-03-11T15:40:18.364Z,5804
2018-03-11T15:41:28.356Z,5600
2018-03-11T15:42:37.822Z,5320
2018-03-11T15:43:47.555Z,4996
2018-03-11T15:44:57.547Z,4720
2018-03-11T15:46:06.765Z,4488
2018-03-11T15:47:16.495Z,4220
2018-03-11T15:48:26.225Z,3868
2018-03-11T15:49:35.965Z,3488
2018-03-11T15:50:45.463Z,3124
2018-03-11T15:51:54.930Z,2748
2018-03-11T15:53:04.395Z,2412
2018-03-11T15:54:14.127Z,2148